Holmes Center, Illinois
Current Conditions -  °F | °C
As of 10:35 PM on Wednesday 22 Oct 2014 (Local Time) from KC75 Reporting Station
Clear Clear  
Wind Chill: 38°   Ceiling: Unl
Heat Index: 38°   Visibility: 10mi
Dew Point: 33°   Wind: 3mph
Humidity: 81%   Direction: 170°S
Pressure: 30.26"   Gusts: NA
Location:  40.915°N, 89.5303°W
Report Text: KC75 230335Z AUTO 17003KT 10SM CLR 03/00 A3026 RMK AO2 T00330003
Loading
Personal Weather Stations






























Interactive Weather Map
Tropical Storm Tracking
New forecast layout! Learn more

10-Day Weather Forecast

Advertisements
Track Severe Weather on mobile